createdAt,value
2018-02-04T00:02:05.589Z,2.80
2018-02-04T00:04:33.048Z,2.80
2018-02-04T00:07:00.520Z,2.90
2018-02-04T00:09:28.003Z,2.90
2018-02-04T00:11:56.268Z,3.00
2018-02-04T00:14:23.710Z,3.00
2018-02-04T00:16:51.178Z,3.00
2018-02-04T00:19:18.639Z,3.10
2018-02-04T00:21:46.160Z,3.10
2018-02-04T00:24:13.662Z,3.10
2018-02-04T00:26:41.129Z,3.10
2018-02-04T00:29:08.668Z,3.10
2018-02-04T00:31:36.150Z,3.10
2018-02-04T00:34:04.367Z,3.10
2018-02-04T00:36:31.821Z,3.10
2018-02-04T00:39:00.254Z,3.10
2018-02-04T00:41:28.481Z,3.10
2018-02-04T00:43:55.945Z,3.20
2018-02-04T00:46:24.166Z,3.20
2018-02-04T00:48:52.373Z,3.20
2018-02-04T00:51:20.515Z,3.20
2018-02-04T00:53:48.714Z,3.20
2018-02-04T00:56:16.209Z,3.20
2018-02-04T00:58:43.612Z,3.20
2018-02-04T01:01:11.073Z,3.20
2018-02-04T01:03:38.517Z,3.30
2018-02-04T01:06:06.745Z,3.30
2018-02-04T01:08:34.184Z,3.30
2018-02-04T01:11:01.639Z,3.30
2018-02-04T01:13:29.084Z,3.40
2018-02-04T01:15:56.541Z,3.40
2018-02-04T01:18:23.993Z,3.40
2018-02-04T01:20:51.448Z,3.40
2018-02-04T01:23:18.893Z,3.40
2018-02-04T01:25:47.114Z,3.40
2018-02-04T01:28:14.570Z,3.40
2018-02-04T01:30:42.026Z,3.40
2018-02-04T01:33:09.492Z,3.40
2018-02-04T01:35:36.937Z,3.40
2018-02-04T01:38:04.464Z,3.40
2018-02-04T01:40:31.910Z,3.40
2018-02-04T01:43:00.140Z,3.40
2018-02-04T01:45:27.601Z,3.40
2018-02-04T01:48:04.942Z,3.40
2018-02-04T01:50:33.149Z,3.50
2018-02-04T01:53:00.598Z,3.40
2018-02-04T01:55:28.052Z,3.50
2018-02-04T01:57:55.507Z,3.50
2018-02-04T02:00:22.949Z,3.50
2018-02-04T02:02:50.390Z,3.50
2018-02-04T02:05:18.605Z,3.50
2018-02-04T02:07:46.056Z,3.50
2018-02-04T02:10:13.510Z,3.50
2018-02-04T02:12:40.952Z,3.50
2018-02-04T02:15:08.405Z,3.50
2018-02-04T02:17:36.608Z,3.60
2018-02-04T02:20:04.056Z,3.50
2018-02-04T02:22:31.497Z,3.50
2018-02-04T02:24:58.950Z,3.60
2018-02-04T02:27:26.392Z,3.60
2018-02-04T02:29:54.611Z,3.60
2018-02-04T02:32:22.065Z,3.60
2018-02-04T02:34:49.514Z,3.60
2018-02-04T02:37:16.960Z,3.60
2018-02-04T02:39:44.413Z,3.60
2018-02-04T02:42:11.853Z,3.60
2018-02-04T02:44:40.081Z,3.60
2018-02-04T02:47:07.534Z,3.60
2018-02-04T02:49:34.986Z,3.60
2018-02-04T02:52:11.243Z,3.70
2018-02-04T02:54:38.682Z,3.70
2018-02-04T02:57:06.129Z,3.70
2018-02-04T02:59:34.341Z,3.70
2018-02-04T03:02:01.795Z,3.70
2018-02-04T03:04:29.255Z,3.70
2018-02-04T03:06:56.697Z,3.70
2018-02-04T03:09:24.149Z,3.70
2018-02-04T03:11:51.605Z,3.70
2018-02-04T03:14:19.056Z,3.80
2018-02-04T03:16:47.265Z,3.80
2018-02-04T03:19:14.720Z,3.70
2018-02-04T03:21:42.159Z,3.80
2018-02-04T03:24:09.604Z,3.80
2018-02-04T03:26:37.045Z,3.80
2018-02-04T03:29:05.260Z,3.80
2018-02-04T03:31:32.715Z,3.80
2018-02-04T03:34:00.160Z,3.80
2018-02-04T03:36:27.609Z,3.80
2018-02-04T03:38:55.049Z,3.80
2018-02-04T03:41:23.270Z,3.80
2018-02-04T03:43:50.726Z,3.70
2018-02-04T03:46:18.160Z,3.80
2018-02-04T03:48:45.616Z,3.80
2018-02-04T03:51:13.060Z,3.80
2018-02-04T03:53:41.281Z,3.80
2018-02-04T03:56:08.725Z,3.80
2018-02-04T03:58:36.203Z,3.80
2018-02-04T04:01:03.651Z,3.80
2018-02-04T04:03:31.082Z,3.80
2018-02-04T04:05:58.525Z,3.70
2018-02-04T04:08:25.968Z,3.70
2018-02-04T04:10:54.189Z,3.70
2018-02-04T04:13:21.628Z,3.70
2018-02-04T04:15:49.084Z,3.60
2018-02-04T04:18:16.533Z,3.60
2018-02-04T04:20:43.979Z,3.50
2018-02-04T04:23:12.187Z,3.40
2018-02-04T04:25:39.637Z,3.40
2018-02-04T04:28:07.067Z,3.40
2018-02-04T04:30:35.289Z,3.30
2018-02-04T04:33:02.736Z,3.30
2018-02-04T04:35:30.195Z,3.30
2018-02-04T04:37:57.639Z,3.30
2018-02-04T04:40:25.088Z,3.20
2018-02-04T04:42:52.530Z,3.20
2018-02-04T04:45:20.821Z,3.10
2018-02-04T04:47:48.252Z,3.10
2018-02-04T04:50:16.461Z,3.10
2018-02-04T04:52:43.908Z,3.00
2018-02-04T04:55:12.286Z,3.00
2018-02-04T04:57:40.484Z,3.00
2018-02-04T05:00:07.942Z,3.00
2018-02-04T05:02:35.399Z,2.90
2018-02-04T05:05:02.885Z,3.00
2018-02-04T05:07:30.312Z,2.90
2018-02-04T05:09:58.769Z,2.90
2018-02-04T05:12:26.981Z,3.00
2018-02-04T05:14:54.436Z,3.00
2018-02-04T05:17:21.889Z,3.00
2018-02-04T05:19:49.344Z,3.00
2018-02-04T05:22:16.799Z,3.00
2018-02-04T05:24:44.247Z,3.00
2018-02-04T05:27:11.702Z,2.90
2018-02-04T05:29:39.176Z,2.90
2018-02-04T05:32:06.615Z,3.00
2018-02-04T05:34:34.071Z,3.00
2018-02-04T05:37:01.521Z,3.00
2018-02-04T05:39:34.968Z,3.00
2018-02-04T05:42:02.454Z,3.10
2018-02-04T05:44:29.883Z,3.10
2018-02-04T05:46:57.346Z,3.10
2018-02-04T05:49:24.788Z,3.10
2018-02-04T05:51:52.233Z,3.10
2018-02-04T05:54:19.678Z,3.00
2018-02-04T05:56:47.111Z,2.90
2018-02-04T05:59:14.565Z,3.00
2018-02-04T06:01:42.778Z,3.00
2018-02-04T06:04:10.222Z,3.00
2018-02-04T06:06:37.749Z,3.00
2018-02-04T06:09:05.965Z,3.00
2018-02-04T06:11:33.397Z,3.00
2018-02-04T06:14:00.882Z,3.00
2018-02-04T06:16:29.044Z,3.00
2018-02-04T06:18:56.507Z,3.00
2018-02-04T06:21:23.951Z,3.00
2018-02-04T06:23:51.405Z,3.00
2018-02-04T06:26:18.858Z,3.10
2018-02-04T06:28:46.302Z,3.10
2018-02-04T06:31:14.499Z,3.20
2018-02-04T06:33:41.945Z,3.10
2018-02-04T06:36:09.388Z,3.10
2018-02-04T06:38:37.604Z,3.20
2018-02-04T06:41:05.060Z,3.20
2018-02-04T06:43:32.522Z,3.20
2018-02-04T06:46:00.053Z,3.20
2018-02-04T06:48:27.496Z,3.20
2018-02-04T06:50:55.708Z,3.30
2018-02-04T06:53:23.152Z,3.30
2018-02-04T06:55:50.600Z,3.30
2018-02-04T06:58:18.048Z,3.30
2018-02-04T07:00:46.265Z,3.30
2018-02-04T07:03:13.703Z,3.30
2018-02-04T07:05:41.148Z,3.30
2018-02-04T07:08:08.590Z,3.20
2018-02-04T07:10:36.814Z,3.10
2018-02-04T07:13:04.258Z,3.10
2018-02-04T07:15:31.702Z,3.10
2018-02-04T07:17:59.151Z,3.00
2018-02-04T07:20:26.601Z,3.10
2018-02-04T07:22:54.805Z,3.20
2018-02-04T07:25:22.260Z,3.20
2018-02-04T07:27:49.707Z,3.20
2018-02-04T07:30:17.143Z,3.00
2018-02-04T07:32:45.370Z,2.50
2018-02-04T07:35:12.820Z,2.50
2018-02-04T07:37:40.325Z,2.30
2018-02-04T07:40:08.555Z,2.00
2018-02-04T07:42:35.999Z,2.00
2018-02-04T07:45:03.462Z,1.90
2018-02-04T07:47:30.890Z,1.80
2018-02-04T07:49:58.331Z,1.70
2018-02-04T07:52:26.545Z,1.60
2018-02-04T07:54:54.008Z,1.50
2018-02-04T07:57:21.462Z,1.60
2018-02-04T07:59:48.980Z,1.60
2018-02-04T08:02:17.197Z,1.40
2018-02-04T08:04:44.639Z,1.40
2018-02-04T08:07:12.113Z,1.20
2018-02-04T08:09:39.536Z,1.20
2018-02-04T08:12:07.753Z,1.10
2018-02-04T08:14:35.197Z,1.10
2018-02-04T08:17:02.654Z,1.20
2018-02-04T08:19:30.098Z,1.20
2018-02-04T08:21:57.541Z,1.30
2018-02-04T08:24:25.022Z,1.20
2018-02-04T08:26:52.481Z,1.20
2018-02-04T08:29:19.917Z,1.20
2018-02-04T08:31:47.360Z,1.30
2018-02-04T08:34:15.566Z,1.30
2018-02-04T08:36:43.016Z,1.30
2018-02-04T08:39:10.463Z,1.40
2018-02-04T08:41:37.908Z,1.30
2018-02-04T08:44:06.144Z,1.30
2018-02-04T08:46:33.647Z,1.30
2018-02-04T08:49:01.861Z,1.30
2018-02-04T08:51:29.304Z,1.30
2018-02-04T08:53:56.761Z,1.20
2018-02-04T08:56:24.201Z,1.30
2018-02-04T08:58:51.641Z,1.40
2018-02-04T09:01:19.856Z,1.30
2018-02-04T09:03:47.374Z,1.30
2018-02-04T09:06:15.593Z,1.40
2018-02-04T09:08:43.025Z,1.40
2018-02-04T09:11:10.472Z,1.40
2018-02-04T09:13:38.680Z,1.60
2018-02-04T09:16:06.220Z,1.60
2018-02-04T09:18:33.670Z,1.60
2018-02-04T09:21:02.233Z,1.80
2018-02-04T09:23:29.882Z,1.80
2018-02-04T09:25:57.327Z,1.90
2018-02-04T09:28:29.261Z,1.80
2018-02-04T09:30:56.704Z,1.90
2018-02-04T09:33:24.147Z,2.00
2018-02-04T09:35:52.359Z,2.10
2018-02-04T09:38:19.792Z,2.10
2018-02-04T09:40:47.240Z,2.10
2018-02-04T09:43:14.676Z,2.10
2018-02-04T09:45:42.889Z,2.40
2018-02-04T09:48:10.321Z,2.40
2018-02-04T09:50:38.534Z,2.60
2018-02-04T09:53:05.981Z,2.60
2018-02-04T09:55:33.415Z,2.70
2018-02-04T09:58:00.859Z,2.80
2018-02-04T10:00:29.059Z,3.00
2018-02-04T10:02:56.493Z,3.00
2018-02-04T10:05:24.702Z,3.00
2018-02-04T10:07:52.153Z,3.00
2018-02-04T10:10:19.603Z,3.10
2018-02-04T10:12:47.044Z,3.20
2018-02-04T10:15:15.251Z,3.30
2018-02-04T10:17:42.727Z,3.20
2018-02-04T10:20:10.148Z,3.20
2018-02-04T10:22:37.672Z,3.30
2018-02-04T10:25:05.112Z,3.30
2018-02-04T10:27:32.548Z,3.30
2018-02-04T10:29:59.997Z,3.20
2018-02-04T10:32:27.453Z,3.30
2018-02-04T10:34:54.910Z,3.20
2018-02-04T10:37:22.354Z,3.20
2018-02-04T10:39:49.808Z,3.20
2018-02-04T10:42:17.232Z,3.20
2018-02-04T10:44:45.443Z,3.20
2018-02-04T10:47:12.889Z,3.20
2018-02-04T10:49:40.330Z,3.20
2018-02-04T10:52:08.532Z,3.20
2018-02-04T10:54:35.975Z,3.20
2018-02-04T10:57:03.425Z,3.20
2018-02-04T10:59:31.642Z,3.20
2018-02-04T11:01:59.846Z,3.30
2018-02-04T11:04:27.292Z,3.20
2018-02-04T11:06:54.731Z,2.90
2018-02-04T11:09:22.181Z,2.80
2018-02-04T11:11:49.621Z,2.90
2018-02-04T11:14:17.077Z,2.80
2018-02-04T11:16:44.516Z,2.80
2018-02-04T11:19:12.725Z,2.70
2018-02-04T11:21:41.285Z,2.70
2018-02-04T11:24:09.489Z,2.60
2018-02-04T11:26:36.923Z,2.60
2018-02-04T11:29:04.356Z,2.60
2018-02-04T11:31:32.559Z,2.70
2018-02-04T11:34:00.116Z,2.70
2018-02-04T11:36:27.561Z,2.70
2018-02-04T11:38:55.767Z,2.80
2018-02-04T11:41:23.209Z,2.80
2018-02-04T11:43:50.695Z,2.90
2018-02-04T11:46:18.137Z,2.90
2018-02-04T11:48:45.589Z,2.90
2018-02-04T11:51:13.038Z,2.90
2018-02-04T11:53:40.476Z,2.90
2018-02-04T11:56:07.925Z,3.00
2018-02-04T11:58:36.122Z,3.10
2018-02-04T12:01:03.567Z,3.10
2018-02-04T12:03:30.999Z,3.10
2018-02-04T12:05:58.437Z,3.10
2018-02-04T12:08:25.876Z,3.00
2018-02-04T12:10:53.324Z,3.00
2018-02-04T12:13:20.761Z,2.90
2018-02-04T12:15:48.210Z,2.90
2018-02-04T12:18:16.416Z,2.90
2018-02-04T12:20:43.870Z,2.90
2018-02-04T12:23:11.308Z,2.70
2018-02-04T12:25:38.737Z,2.70
2018-02-04T12:28:06.959Z,2.80
2018-02-04T12:30:34.481Z,2.80
2018-02-04T12:33:02.695Z,2.80
2018-02-04T12:35:30.137Z,2.80
2018-02-04T12:37:57.607Z,2.80
2018-02-04T12:40:26.864Z,3.00
2018-02-04T12:42:55.088Z,3.00
2018-02-04T12:45:22.533Z,3.00
2018-02-04T12:47:49.979Z,3.00
2018-02-04T12:50:17.434Z,3.00
2018-02-04T12:52:44.882Z,2.90
2018-02-04T13:04:12.972Z,2.80
2018-02-04T13:06:41.246Z,2.90
2018-02-04T13:09:09.483Z,2.90
2018-02-04T13:11:36.985Z,3.00
2018-02-04T13:14:05.193Z,2.90
2018-02-04T13:16:32.710Z,2.90
2018-02-04T13:19:00.922Z,3.00
2018-02-04T13:21:28.504Z,2.90
2018-02-04T13:23:56.032Z,3.00
2018-02-04T13:26:23.464Z,3.10
2018-02-04T13:28:53.729Z,3.00
2018-02-04T13:31:21.359Z,2.90
2018-02-04T13:33:48.917Z,3.00
2018-02-04T13:36:17.214Z,2.90
2018-02-04T13:38:44.656Z,2.90
2018-02-04T13:41:12.878Z,3.00
2018-02-04T13:43:40.373Z,3.00
2018-02-04T13:46:08.594Z,3.00
2018-02-04T13:48:36.049Z,3.00
2018-02-04T13:51:03.531Z,3.20
2018-02-04T13:53:30.976Z,3.20
2018-02-04T13:55:58.497Z,3.10
2018-02-04T13:58:26.108Z,3.10
2018-02-04T14:00:53.593Z,3.30
2018-02-04T14:03:21.020Z,3.40
2018-02-04T14:05:48.457Z,3.40
2018-02-04T14:08:19.358Z,3.30
2018-02-04T14:10:47.584Z,3.00
2018-02-04T14:13:15.031Z,3.00
2018-02-04T14:15:42.464Z,2.90
2018-02-04T14:18:09.903Z,2.80
2018-02-04T14:20:38.172Z,2.50
2018-02-04T14:23:06.390Z,2.50
2018-02-04T14:25:33.843Z,2.50
2018-02-04T14:28:01.282Z,2.60
2018-02-04T14:30:28.713Z,2.50
2018-02-04T14:32:57.001Z,2.60
2018-02-04T14:35:25.216Z,2.60
2018-02-04T14:37:52.748Z,2.60
2018-02-04T14:40:20.189Z,2.70
2018-02-04T14:42:49.142Z,2.80
2018-02-04T14:45:16.584Z,2.80
2018-02-04T14:47:44.032Z,2.70
2018-02-04T14:50:11.532Z,2.60
2018-02-04T14:52:38.990Z,2.50
2018-02-04T14:55:06.424Z,2.50
2018-02-04T14:57:33.937Z,2.40
2018-02-04T15:00:02.143Z,2.40
2018-02-04T15:02:30.595Z,2.40
2018-02-04T15:04:58.038Z,2.30
2018-02-04T15:07:26.250Z,2.30
2018-02-04T15:09:53.677Z,2.20
2018-02-04T15:12:21.897Z,2.30
2018-02-04T15:14:49.345Z,2.30
2018-02-04T15:17:16.806Z,2.30
2018-02-04T15:19:44.253Z,2.30
2018-02-04T15:22:11.694Z,2.20
2018-02-04T15:24:39.149Z,2.10
2018-02-04T15:27:09.774Z,2.00
2018-02-04T15:29:37.980Z,1.70
2018-02-04T15:32:05.428Z,1.70
2018-02-04T15:34:32.872Z,1.80
2018-02-04T15:37:00.315Z,1.90
2018-02-04T15:39:28.533Z,2.00
2018-02-04T15:41:59.151Z,1.90
2018-02-04T15:44:26.548Z,1.90
2018-02-04T15:46:54.001Z,1.80
2018-02-04T15:49:21.456Z,1.90
2018-02-04T15:51:48.892Z,1.80
2018-02-04T15:54:23.044Z,1.80
2018-02-04T15:56:50.481Z,1.80
2018-02-04T15:59:17.933Z,1.80
2018-02-04T16:01:45.377Z,1.60
2018-02-04T16:04:12.816Z,1.60
2018-02-04T16:06:40.348Z,1.60
2018-02-04T16:09:08.619Z,1.70
2018-02-04T16:11:36.905Z,1.70
2018-02-04T16:14:05.099Z,1.60
2018-02-04T16:16:32.540Z,1.60
2018-02-04T16:18:59.981Z,1.60
2018-02-04T16:21:28.217Z,1.60
2018-02-04T16:23:55.661Z,1.50
2018-02-04T16:26:23.111Z,1.60
2018-02-04T16:28:50.547Z,1.70
2018-02-04T16:31:18.760Z,1.40
2018-02-04T16:33:46.271Z,1.40
2018-02-04T16:36:14.501Z,1.40
2018-02-04T16:38:42.074Z,1.40
2018-02-04T16:41:09.555Z,1.40
2018-02-04T16:43:37.783Z,1.40
2018-02-04T16:46:05.492Z,1.40
2018-02-04T16:48:32.995Z,1.40
2018-02-04T16:51:02.071Z,1.30
2018-02-04T16:53:30.644Z,1.30
2018-02-04T16:55:58.922Z,1.40
2018-02-04T16:58:27.193Z,1.40
2018-02-04T17:00:55.459Z,1.30
2018-02-04T17:03:23.696Z,1.30
2018-02-04T17:05:51.124Z,1.30
2018-02-04T17:08:18.562Z,1.20
2018-02-04T17:10:46.774Z,1.30
2018-02-04T17:13:14.215Z,1.30
2018-02-04T17:15:46.363Z,1.30
2018-02-04T17:18:14.981Z,1.30
2018-02-04T17:20:42.435Z,1.30
2018-02-04T17:23:09.894Z,1.10
2018-02-04T17:25:37.346Z,1.10
2018-02-04T17:28:04.789Z,1.00
2018-02-04T17:30:34.170Z,1.00
2018-02-04T17:33:02.386Z,1.00
2018-02-04T17:35:30.094Z,1.00
2018-02-04T17:37:57.564Z,1.00
2018-02-04T17:40:29.644Z,0.90
2018-02-04T17:42:57.088Z,0.90
2018-02-04T17:45:25.305Z,0.90
2018-02-04T17:47:52.740Z,0.90
2018-02-04T17:50:20.196Z,1.00
2018-02-04T17:52:47.681Z,1.00
2018-02-04T17:55:15.130Z,1.10
2018-02-04T17:57:42.565Z,1.10
2018-02-04T18:00:10.765Z,1.30
2018-02-04T18:02:38.232Z,1.30
2018-02-04T18:05:07.687Z,1.20
2018-02-04T18:07:44.140Z,1.20
2018-02-04T18:10:11.582Z,1.20
2018-02-04T18:12:39.020Z,1.30
2018-02-04T18:15:07.260Z,1.10
2018-02-04T18:17:35.472Z,1.10
2018-02-04T18:20:03.688Z,1.00
2018-02-04T18:22:33.362Z,1.00
2018-02-04T18:25:00.814Z,1.00
2018-02-04T18:27:28.252Z,0.90
2018-02-04T18:29:55.695Z,0.80
2018-02-04T18:32:23.159Z,0.80
2018-02-04T18:34:50.601Z,0.80
2018-02-04T18:37:18.818Z,0.90
2018-02-04T18:39:46.250Z,0.80
2018-02-04T18:42:13.701Z,0.90
2018-02-04T18:44:46.005Z,0.80
2018-02-04T18:47:13.498Z,0.80
2018-02-04T18:49:41.338Z,0.80
2018-02-04T18:52:09.606Z,0.80
2018-02-04T18:54:37.049Z,0.80
2018-02-04T18:57:04.494Z,0.80
2018-02-04T18:59:31.941Z,0.70
2018-02-04T19:01:59.373Z,0.70
2018-02-04T19:04:27.595Z,0.70
2018-02-04T19:06:55.045Z,0.70
2018-02-04T19:09:22.488Z,0.70
2018-02-04T19:11:50.405Z,0.70
2018-02-04T19:14:17.912Z,0.70
2018-02-04T19:16:46.402Z,0.70
2018-02-04T19:19:13.836Z,0.70
2018-02-04T19:21:42.050Z,0.70
2018-02-04T19:24:09.774Z,0.70
2018-02-04T19:26:37.288Z,0.70
2018-02-04T19:29:04.767Z,0.70
2018-02-04T19:31:32.205Z,0.80
2018-02-04T19:34:03.222Z,0.80
2018-02-04T19:36:33.408Z,0.90
2018-02-04T19:39:02.173Z,0.90
2018-02-04T19:41:29.722Z,0.90
2018-02-04T19:43:57.407Z,0.90
2018-02-04T19:46:24.880Z,0.90
2018-02-04T19:48:53.119Z,0.90
2018-02-04T19:51:20.712Z,0.90
2018-02-04T19:53:48.938Z,1.00
2018-02-04T19:56:16.393Z,0.90
2018-02-04T19:58:43.891Z,0.80
2018-02-04T20:01:11.571Z,0.80
2018-02-04T20:03:39.793Z,0.80
2018-02-04T20:06:07.240Z,0.70
2018-02-04T20:08:34.778Z,0.70
2018-02-04T20:11:02.209Z,0.70
2018-02-04T20:13:31.413Z,0.80
2018-02-04T20:15:59.622Z,0.80
2018-02-04T20:18:27.087Z,0.80
2018-02-04T20:20:54.517Z,0.80
2018-02-04T20:23:21.965Z,0.80
2018-02-04T20:25:50.343Z,0.80
2018-02-04T20:28:18.737Z,0.90
2018-02-04T20:30:46.174Z,0.80
2018-02-04T20:33:35.010Z,0.90
2018-02-04T20:36:02.448Z,0.90
2018-02-04T20:38:29.972Z,0.90
2018-02-04T20:40:57.458Z,0.90
2018-02-04T20:43:24.973Z,0.90
2018-02-04T20:45:53.508Z,0.90
2018-02-04T20:48:20.965Z,0.90
2018-02-04T20:50:48.392Z,0.80
2018-02-04T20:53:15.998Z,0.80
2018-02-04T20:55:43.442Z,0.80
2018-02-04T20:58:10.980Z,0.90
2018-02-04T21:00:38.438Z,0.90
2018-02-04T21:03:07.908Z,0.80
2018-02-04T21:05:36.868Z,0.90
2018-02-04T21:08:05.194Z,0.80
2018-02-04T21:10:32.621Z,0.80
2018-02-04T21:13:00.820Z,0.90
2018-02-04T21:15:28.258Z,0.80
2018-02-04T21:17:58.324Z,0.80
2018-02-04T21:20:25.763Z,0.80
2018-02-04T21:22:53.203Z,0.90
2018-02-04T21:25:20.651Z,0.90
2018-02-04T21:27:48.843Z,0.90
2018-02-04T21:30:16.310Z,0.80
2018-02-04T21:32:43.726Z,0.90
2018-02-04T21:35:11.970Z,0.90
2018-02-04T21:37:39.459Z,0.80
2018-02-04T21:40:07.680Z,0.80
2018-02-04T21:42:35.131Z,0.80
2018-02-04T21:45:08.784Z,0.70
2018-02-04T21:47:36.216Z,0.70
2018-02-04T21:50:03.732Z,0.80
2018-02-04T21:52:31.398Z,0.70
2018-02-04T21:54:58.902Z,0.70
2018-02-04T21:57:26.610Z,0.70
2018-02-04T21:59:54.818Z,0.70
2018-02-04T22:02:22.253Z,0.70
2018-02-04T22:04:49.691Z,0.80
2018-02-04T22:07:17.918Z,0.80
2018-02-04T22:09:45.356Z,0.70
2018-02-04T22:12:12.830Z,0.60
2018-02-04T22:14:40.262Z,0.60
2018-02-04T22:17:07.754Z,0.60
2018-02-04T22:19:35.191Z,0.60
2018-02-04T22:22:02.615Z,0.70
2018-02-04T22:24:30.073Z,0.70
2018-02-04T22:26:58.284Z,0.70
2018-02-04T22:29:29.583Z,0.70
2018-02-04T22:31:57.790Z,0.70
2018-02-04T22:34:25.235Z,0.70
2018-02-04T22:36:52.680Z,0.80
2018-02-04T22:39:20.897Z,0.80
2018-02-04T22:41:48.343Z,0.80
2018-02-04T22:44:15.784Z,0.70
2018-02-04T22:46:43.255Z,0.80
2018-02-04T22:49:10.681Z,0.80
2018-02-04T22:51:38.908Z,0.70
2018-02-04T22:54:07.335Z,0.70
2018-02-04T22:56:35.534Z,0.70
2018-02-04T22:59:02.981Z,0.70
2018-02-04T23:01:31.182Z,0.80
2018-02-04T23:03:58.607Z,0.80
2018-02-04T23:06:26.057Z,0.90
2018-02-04T23:08:54.265Z,0.90
2018-02-04T23:11:21.696Z,0.80
2018-02-04T23:13:49.141Z,0.90
2018-02-04T23:16:17.362Z,0.90
2018-02-04T23:18:44.810Z,0.90
2018-02-04T23:21:12.240Z,0.80
2018-02-04T23:23:40.462Z,0.80
2018-02-04T23:26:07.893Z,0.80
2018-02-04T23:28:35.328Z,0.70
2018-02-04T23:31:09.429Z,0.70
2018-02-04T23:33:37.642Z,0.80
2018-02-04T23:36:05.075Z,0.80
2018-02-04T23:38:33.280Z,0.80
2018-02-04T23:41:00.712Z,0.80
2018-02-04T23:43:30.112Z,0.90
2018-02-04T23:45:57.572Z,0.90
2018-02-04T23:48:25.765Z,0.80
2018-02-04T23:50:53.208Z,0.80
2018-02-04T23:53:20.651Z,0.70
2018-02-04T23:55:48.864Z,0.70
2018-02-04T23:58:16.307Z,0.70
